sensor_id;sensor_type;location;lat;lon;timestamp;temperature;humidity
569;DHT22;269;48.884;9.192;2022-07-29T00:01:21;19.90;99.90
569;DHT22;269;48.884;9.192;2022-07-29T00:03:48;19.90;99.90
569;DHT22;269;48.884;9.192;2022-07-29T00:06:16;19.90;99.90
569;DHT22;269;48.884;9.192;2022-07-29T00:08:43;19.80;99.90
569;DHT22;269;48.884;9.192;2022-07-29T00:11:10;19.80;99.90
569;DHT22;269;48.884;9.192;2022-07-29T00:13:37;19.80;99.90
569;DHT22;269;48.884;9.192;2022-07-29T00:16:04;19.80;99.90
569;DHT22;269;48.884;9.192;2022-07-29T00:18:32;19.70;99.90
569;DHT22;269;48.884;9.192;2022-07-29T00:21:00;19.70;99.90
569;DHT22;269;48.884;9.192;2022-07-29T00:23:28;19.60;99.90
569;DHT22;269;48.884;9.192;2022-07-29T00:25:55;19.60;99.90
569;DHT22;269;48.884;9.192;2022-07-29T00:28:22;19.60;99.90
569;DHT22;269;48.884;9.192;2022-07-29T00:30:50;19.60;99.90
569;DHT22;269;48.884;9.192;2022-07-29T00:33:17;19.50;99.90
569;DHT22;269;48.884;9.192;2022-07-29T00:35:45;19.50;99.90
569;DHT22;269;48.884;9.192;2022-07-29T00:38:13;19.50;99.90
569;DHT22;269;48.884;9.192;2022-07-29T00:40:41;19.50;99.90
569;DHT22;269;48.884;9.192;2022-07-29T00:43:08;19.50;99.90
569;DHT22;269;48.884;9.192;2022-07-29T00:45:36;19.40;99.90
569;DHT22;269;48.884;9.192;2022-07-29T00:48:04;19.40;99.90
569;DHT22;269;48.884;9.192;2022-07-29T00:50:32;19.40;99.90
569;DHT22;269;48.884;9.192;2022-07-29T00:53:01;19.30;99.90
569;DHT22;269;48.884;9.192;2022-07-29T00:55:29;19.30;99.90
569;DHT22;269;48.884;9.192;2022-07-29T00:57:58;19.30;99.90
569;DHT22;269;48.884;9.192;2022-07-29T01:00:27;19.30;99.90
569;DHT22;269;48.884;9.192;2022-07-29T01:02:54;19.30;99.90
569;DHT22;269;48.884;9.192;2022-07-29T01:05:22;19.20;99.90
569;DHT22;269;48.884;9.192;2022-07-29T01:07:52;19.20;99.90
569;DHT22;269;48.884;9.192;2022-07-29T01:10:22;19.20;99.90
569;DHT22;269;48.884;9.192;2022-07-29T01:12:52;19.40;99.90
569;DHT22;269;48.884;9.192;2022-07-29T01:15:20;19.20;99.90
569;DHT22;269;48.884;9.192;2022-07-29T01:17:53;19.20;99.90
569;DHT22;269;48.884;9.192;2022-07-29T01:20:26;19.20;99.90
569;DHT22;269;48.884;9.192;2022-07-29T01:26:04;19.10;99.90
569;DHT22;269;48.884;9.192;2022-07-29T01:28:49;19.10;99.90
569;DHT22;269;48.884;9.192;2022-07-29T01:31:22;19.10;99.90
569;DHT22;269;48.884;9.192;2022-07-29T01:33:57;19.10;99.90
569;DHT22;269;48.884;9.192;2022-07-29T01:36:30;19.10;99.90
569;DHT22;269;48.884;9.192;2022-07-29T01:39:05;19.10;99.90
569;DHT22;269;48.884;9.192;2022-07-29T01:41:36;19.10;99.90
569;DHT22;269;48.884;9.192;2022-07-29T01:44:12;19.20;99.90
569;DHT22;269;48.884;9.192;2022-07-29T01:46:44;19.20;99.90
569;DHT22;269;48.884;9.192;2022-07-29T01:49:14;19.20;99.90
569;DHT22;269;48.884;9.192;2022-07-29T01:51:46;19.20;99.90
569;DHT22;269;48.884;9.192;2022-07-29T01:54:20;19.10;99.90
569;DHT22;269;48.884;9.192;2022-07-29T01:56:51;19.10;99.90
569;DHT22;269;48.884;9.192;2022-07-29T01:59:20;19.00;99.90
569;DHT22;269;48.884;9.192;2022-07-29T02:01:50;19.00;99.90
569;DHT22;269;48.884;9.192;2022-07-29T02:04:20;18.90;99.90
569;DHT22;269;48.884;9.192;2022-07-29T02:06:50;19.00;99.90
569;DHT22;269;48.884;9.192;2022-07-29T02:09:19;18.90;99.90
569;DHT22;269;48.884;9.192;2022-07-29T02:11:49;18.90;99.90
569;DHT22;269;48.884;9.192;2022-07-29T02:14:21;18.80;99.90
569;DHT22;269;48.884;9.192;2022-07-29T02:16:51;18.80;99.90
569;DHT22;269;48.884;9.192;2022-07-29T02:19:21;18.70;99.90
569;DHT22;269;48.884;9.192;2022-07-29T02:21:51;18.70;99.90
569;DHT22;269;48.884;9.192;2022-07-29T02:24:21;18.70;99.90
569;DHT22;269;48.884;9.192;2022-07-29T02:26:50;18.70;99.90
569;DHT22;269;48.884;9.192;2022-07-29T02:29:22;18.70;99.90
569;DHT22;269;48.884;9.192;2022-07-29T02:31:51;18.80;99.90
569;DHT22;269;48.884;9.192;2022-07-29T02:34:20;18.80;99.90
569;DHT22;269;48.884;9.192;2022-07-29T02:36:48;18.90;99.90
569;DHT22;269;48.884;9.192;2022-07-29T02:39:17;18.90;99.90
569;DHT22;269;48.884;9.192;2022-07-29T02:41:47;19.00;99.90
569;DHT22;269;48.884;9.192;2022-07-29T02:44:16;19.00;99.90
569;DHT22;269;48.884;9.192;2022-07-29T02:46:49;19.10;99.90
569;DHT22;269;48.884;9.192;2022-07-29T02:49:27;19.10;99.90
569;DHT22;269;48.884;9.192;2022-07-29T02:52:00;19.20;99.90
569;DHT22;269;48.884;9.192;2022-07-29T02:54:37;19.20;99.90
569;DHT22;269;48.884;9.192;2022-07-29T02:57:11;19.30;99.90
569;DHT22;269;48.884;9.192;2022-07-29T02:59:42;19.30;99.90
569;DHT22;269;48.884;9.192;2022-07-29T03:02:13;19.30;99.90
569;DHT22;269;48.884;9.192;2022-07-29T03:04:42;19.20;99.90
569;DHT22;269;48.884;9.192;2022-07-29T03:07:11;19.20;99.90
569;DHT22;269;48.884;9.192;2022-07-29T03:09:41;19.10;99.90
569;DHT22;269;48.884;9.192;2022-07-29T03:12:09;19.10;99.90
569;DHT22;269;48.884;9.192;2022-07-29T03:14:37;19.10;99.90
569;DHT22;269;48.884;9.192;2022-07-29T03:17:05;19.00;99.90
569;DHT22;269;48.884;9.192;2022-07-29T03:19:34;18.90;99.90
569;DHT22;269;48.884;9.192;2022-07-29T03:22:02;18.80;99.90
569;DHT22;269;48.884;9.192;2022-07-29T03:24:32;18.80;99.90
569;DHT22;269;48.884;9.192;2022-07-29T03:27:00;18.80;99.90
569;DHT22;269;48.884;9.192;2022-07-29T03:29:28;18.80;99.90
569;DHT22;269;48.884;9.192;2022-07-29T03:31:55;18.80;99.90
569;DHT22;269;48.884;9.192;2022-07-29T03:34:22;18.80;99.90
569;DHT22;269;48.884;9.192;2022-07-29T03:36:51;18.80;99.90
569;DHT22;269;48.884;9.192;2022-07-29T03:39:22;18.80;99.90
569;DHT22;269;48.884;9.192;2022-07-29T03:41:53;18.90;99.90
569;DHT22;269;48.884;9.192;2022-07-29T03:44:22;18.80;99.90
569;DHT22;269;48.884;9.192;2022-07-29T03:46:59;18.80;99.90
569;DHT22;269;48.884;9.192;2022-07-29T03:49:27;18.80;99.90
569;DHT22;269;48.884;9.192;2022-07-29T03:51:57;18.80;99.90
569;DHT22;269;48.884;9.192;2022-07-29T03:54:24;18.80;99.90
569;DHT22;269;48.884;9.192;2022-07-29T03:56:52;18.90;99.90
569;DHT22;269;48.884;9.192;2022-07-29T03:59:21;18.80;99.90
569;DHT22;269;48.884;9.192;2022-07-29T04:01:49;18.90;99.90
569;DHT22;269;48.884;9.192;2022-07-29T04:04:16;18.90;99.90
569;DHT22;269;48.884;9.192;2022-07-29T04:06:45;18.80;99.90
569;DHT22;269;48.884;9.192;2022-07-29T04:09:14;18.80;99.90
569;DHT22;269;48.884;9.192;2022-07-29T04:11:41;18.80;99.90
569;DHT22;269;48.884;9.192;2022-07-29T04:14:08;18.70;99.90
569;DHT22;269;48.884;9.192;2022-07-29T04:16:35;18.70;99.90
569;DHT22;269;48.884;9.192;2022-07-29T04:19:02;18.70;99.90
569;DHT22;269;48.884;9.192;2022-07-29T04:21:29;18.50;99.90
569;DHT22;269;48.884;9.192;2022-07-29T04:23:56;18.50;99.90
569;DHT22;269;48.884;9.192;2022-07-29T04:26:25;18.50;99.90
569;DHT22;269;48.884;9.192;2022-07-29T04:28:52;18.40;99.90
569;DHT22;269;48.884;9.192;2022-07-29T04:31:19;18.40;99.90
569;DHT22;269;48.884;9.192;2022-07-29T04:33:46;18.40;99.90
569;DHT22;269;48.884;9.192;2022-07-29T04:36:30;18.40;99.90
569;DHT22;269;48.884;9.192;2022-07-29T04:38:57;18.40;99.90
569;DHT22;269;48.884;9.192;2022-07-29T04:41:26;18.40;99.90
569;DHT22;269;48.884;9.192;2022-07-29T04:43:53;18.40;99.90
569;DHT22;269;48.884;9.192;2022-07-29T04:46:20;18.30;99.90
569;DHT22;269;48.884;9.192;2022-07-29T04:48:48;18.30;99.90
569;DHT22;269;48.884;9.192;2022-07-29T04:51:15;18.30;99.90
569;DHT22;269;48.884;9.192;2022-07-29T04:53:42;18.30;99.90
569;DHT22;269;48.884;9.192;2022-07-29T04:56:09;18.20;99.90
569;DHT22;269;48.884;9.192;2022-07-29T04:58:38;18.10;99.90
569;DHT22;269;48.884;9.192;2022-07-29T05:01:05;18.10;99.90
569;DHT22;269;48.884;9.192;2022-07-29T05:03:32;18.20;99.90
569;DHT22;269;48.884;9.192;2022-07-29T05:05:59;18.20;99.90
569;DHT22;269;48.884;9.192;2022-07-29T05:08:26;18.30;99.90
569;DHT22;269;48.884;9.192;2022-07-29T05:10:53;18.40;99.90
569;DHT22;269;48.884;9.192;2022-07-29T05:13:20;18.40;99.90
569;DHT22;269;48.884;9.192;2022-07-29T05:15:49;18.40;99.90
569;DHT22;269;48.884;9.192;2022-07-29T05:18:16;18.50;99.90
569;DHT22;269;48.884;9.192;2022-07-29T05:20:43;18.50;99.90
569;DHT22;269;48.884;9.192;2022-07-29T05:23:10;18.50;99.90
569;DHT22;269;48.884;9.192;2022-07-29T05:25:38;18.50;99.90
569;DHT22;269;48.884;9.192;2022-07-29T05:28:05;18.60;99.90
569;DHT22;269;48.884;9.192;2022-07-29T05:30:32;18.60;99.90
569;DHT22;269;48.884;9.192;2022-07-29T05:33:01;18.70;99.90
569;DHT22;269;48.884;9.192;2022-07-29T05:35:28;18.80;99.90
569;DHT22;269;48.884;9.192;2022-07-29T05:37:55;18.90;99.90
569;DHT22;269;48.884;9.192;2022-07-29T05:40:23;19.00;99.90
569;DHT22;269;48.884;9.192;2022-07-29T05:42:50;19.10;99.90
569;DHT22;269;48.884;9.192;2022-07-29T05:45:17;19.20;99.90
569;DHT22;269;48.884;9.192;2022-07-29T05:47:44;19.40;99.90
569;DHT22;269;48.884;9.192;2022-07-29T05:50:12;19.40;99.90
569;DHT22;269;48.884;9.192;2022-07-29T05:52:40;19.50;99.90
569;DHT22;269;48.884;9.192;2022-07-29T05:55:07;19.60;99.90
569;DHT22;269;48.884;9.192;2022-07-29T05:57:35;19.60;99.90
569;DHT22;269;48.884;9.192;2022-07-29T06:00:03;19.60;99.90
569;DHT22;269;48.884;9.192;2022-07-29T06:02:30;19.70;99.90
569;DHT22;269;48.884;9.192;2022-07-29T06:04:57;19.80;99.90
569;DHT22;269;48.884;9.192;2022-07-29T06:07:25;19.90;99.90
569;DHT22;269;48.884;9.192;2022-07-29T06:09:52;20.00;99.90
569;DHT22;269;48.884;9.192;2022-07-29T06:12:20;20.10;99.90
569;DHT22;269;48.884;9.192;2022-07-29T06:14:47;20.30;99.90
569;DHT22;269;48.884;9.192;2022-07-29T06:17:16;20.40;99.90
569;DHT22;269;48.884;9.192;2022-07-29T06:19:43;20.50;99.90
569;DHT22;269;48.884;9.192;2022-07-29T06:22:11;20.50;99.90
569;DHT22;269;48.884;9.192;2022-07-29T06:24:39;20.60;99.90
569;DHT22;269;48.884;9.192;2022-07-29T06:27:09;20.70;99.90
569;DHT22;269;48.884;9.192;2022-07-29T06:29:37;20.70;99.90
569;DHT22;269;48.884;9.192;2022-07-29T06:32:05;20.80;99.90
569;DHT22;269;48.884;9.192;2022-07-29T06:34:32;20.90;99.90
569;DHT22;269;48.884;9.192;2022-07-29T06:36:59;21.10;99.90
569;DHT22;269;48.884;9.192;2022-07-29T06:39:28;21.20;99.90
569;DHT22;269;48.884;9.192;2022-07-29T06:41:56;21.40;99.90
569;DHT22;269;48.884;9.192;2022-07-29T06:44:24;21.60;99.90
569;DHT22;269;48.884;9.192;2022-07-29T06:46:51;21.80;99.90
569;DHT22;269;48.884;9.192;2022-07-29T06:49:18;21.80;99.90
569;DHT22;269;48.884;9.192;2022-07-29T06:51:45;21.80;99.90
569;DHT22;269;48.884;9.192;2022-07-29T06:54:13;21.90;99.90
569;DHT22;269;48.884;9.192;2022-07-29T06:56:40;22.00;99.90
569;DHT22;269;48.884;9.192;2022-07-29T06:59:11;22.00;99.90
569;DHT22;269;48.884;9.192;2022-07-29T07:01:39;22.00;99.90
569;DHT22;269;48.884;9.192;2022-07-29T07:04:07;22.10;99.90
569;DHT22;269;48.884;9.192;2022-07-29T07:06:35;22.30;99.90
569;DHT22;269;48.884;9.192;2022-07-29T07:09:02;22.50;99.90
569;DHT22;269;48.884;9.192;2022-07-29T07:11:29;22.60;99.90
569;DHT22;269;48.884;9.192;2022-07-29T07:13:57;22.80;99.90
569;DHT22;269;48.884;9.192;2022-07-29T07:16:25;23.00;99.90
569;DHT22;269;48.884;9.192;2022-07-29T07:18:52;23.20;99.90
569;DHT22;269;48.884;9.192;2022-07-29T07:21:20;23.30;99.90
569;DHT22;269;48.884;9.192;2022-07-29T07:23:46;23.30;99.90
569;DHT22;269;48.884;9.192;2022-07-29T07:26:13;23.50;99.90
569;DHT22;269;48.884;9.192;2022-07-29T07:28:41;23.90;99.90
569;DHT22;269;48.884;9.192;2022-07-29T07:31:08;24.30;99.90
569;DHT22;269;48.884;9.192;2022-07-29T07:33:37;24.70;99.90
569;DHT22;269;48.884;9.192;2022-07-29T07:36:04;25.00;99.90
569;DHT22;269;48.884;9.192;2022-07-29T07:38:31;25.20;99.90
569;DHT22;269;48.884;9.192;2022-07-29T07:40:58;25.40;99.90
569;DHT22;269;48.884;9.192;2022-07-29T07:43:25;25.70;99.90
569;DHT22;269;48.884;9.192;2022-07-29T07:45:52;25.90;99.90
569;DHT22;269;48.884;9.192;2022-07-29T07:48:19;26.30;99.90
569;DHT22;269;48.884;9.192;2022-07-29T07:50:48;26.70;99.90
569;DHT22;269;48.884;9.192;2022-07-29T07:53:16;27.00;99.90
569;DHT22;269;48.884;9.192;2022-07-29T07:55:45;26.90;99.90
569;DHT22;269;48.884;9.192;2022-07-29T07:58:12;26.90;99.90
569;DHT22;269;48.884;9.192;2022-07-29T08:00:39;26.90;99.90
569;DHT22;269;48.884;9.192;2022-07-29T08:03:06;27.10;99.90
569;DHT22;269;48.884;9.192;2022-07-29T08:05:34;27.40;99.90
569;DHT22;269;48.884;9.192;2022-07-29T08:08:03;27.60;99.90
569;DHT22;269;48.884;9.192;2022-07-29T08:10:30;27.80;99.90
569;DHT22;269;48.884;9.192;2022-07-29T08:13:15;27.80;99.90
569;DHT22;269;48.884;9.192;2022-07-29T08:15:42;27.60;99.90
569;DHT22;269;48.884;9.192;2022-07-29T08:18:11;27.50;99.90
569;DHT22;269;48.884;9.192;2022-07-29T08:20:38;27.50;99.90
569;DHT22;269;48.884;9.192;2022-07-29T08:23:10;27.50;99.90
569;DHT22;269;48.884;9.192;2022-07-29T08:25:37;27.50;99.90
569;DHT22;269;48.884;9.192;2022-07-29T08:28:05;27.60;99.90
569;DHT22;269;48.884;9.192;2022-07-29T08:30:32;27.90;99.90
569;DHT22;269;48.884;9.192;2022-07-29T08:32:59;28.40;99.90
569;DHT22;269;48.884;9.192;2022-07-29T08:35:27;28.80;99.90
569;DHT22;269;48.884;9.192;2022-07-29T08:37:54;29.20;99.90
569;DHT22;269;48.884;9.192;2022-07-29T08:40:23;29.50;99.90
569;DHT22;269;48.884;9.192;2022-07-29T08:42:51;29.80;99.90
569;DHT22;269;48.884;9.192;2022-07-29T08:45:18;30.10;99.40
569;DHT22;269;48.884;9.192;2022-07-29T08:47:46;30.30;96.70
569;DHT22;269;48.884;9.192;2022-07-29T08:50:14;30.40;95.50
569;DHT22;269;48.884;9.192;2022-07-29T08:52:41;30.40;95.40
569;DHT22;269;48.884;9.192;2022-07-29T08:55:10;30.50;94.40
569;DHT22;269;48.884;9.192;2022-07-29T08:57:39;30.70;93.00
569;DHT22;269;48.884;9.192;2022-07-29T09:00:08;30.90;93.30
569;DHT22;269;48.884;9.192;2022-07-29T09:02:39;30.70;92.80
569;DHT22;269;48.884;9.192;2022-07-29T09:05:08;30.80;92.70
569;DHT22;269;48.884;9.192;2022-07-29T09:07:35;30.90;93.00
569;DHT22;269;48.884;9.192;2022-07-29T09:10:04;31.20;92.30
569;DHT22;269;48.884;9.192;2022-07-29T09:12:32;31.40;91.50
569;DHT22;269;48.884;9.192;2022-07-29T09:15:00;31.90;89.90
569;DHT22;269;48.884;9.192;2022-07-29T09:17:40;32.00;88.40
569;DHT22;269;48.884;9.192;2022-07-29T09:20:10;32.00;88.70
569;DHT22;269;48.884;9.192;2022-07-29T09:22:38;32.10;87.70
569;DHT22;269;48.884;9.192;2022-07-29T09:25:05;32.30;85.40
569;DHT22;269;48.884;9.192;2022-07-29T09:27:32;32.20;82.90
569;DHT22;269;48.884;9.192;2022-07-29T09:30:03;32.10;82.20
569;DHT22;269;48.884;9.192;2022-07-29T09:32:31;32.20;81.50
569;DHT22;269;48.884;9.192;2022-07-29T09:35:15;31.90;81.70
569;DHT22;269;48.884;9.192;2022-07-29T09:37:43;31.40;84.80
569;DHT22;269;48.884;9.192;2022-07-29T09:40:12;31.50;84.20
569;DHT22;269;48.884;9.192;2022-07-29T09:42:39;31.60;80.60
569;DHT22;269;48.884;9.192;2022-07-29T09:45:09;31.70;82.20
569;DHT22;269;48.884;9.192;2022-07-29T09:47:43;31.80;82.20
569;DHT22;269;48.884;9.192;2022-07-29T09:50:14;32.10;81.40
569;DHT22;269;48.884;9.192;2022-07-29T09:52:46;32.40;79.20
569;DHT22;269;48.884;9.192;2022-07-29T09:55:14;32.50;79.20
569;DHT22;269;48.884;9.192;2022-07-29T09:57:41;32.80;79.40
569;DHT22;269;48.884;9.192;2022-07-29T10:00:12;33.10;79.50
569;DHT22;269;48.884;9.192;2022-07-29T10:02:41;33.40;76.80
569;DHT22;269;48.884;9.192;2022-07-29T10:05:18;33.50;73.90
569;DHT22;269;48.884;9.192;2022-07-29T10:07:47;33.50;73.30
569;DHT22;269;48.884;9.192;2022-07-29T10:10:22;33.40;73.60
569;DHT22;269;48.884;9.192;2022-07-29T10:12:51;33.40;73.50
569;DHT22;269;48.884;9.192;2022-07-29T10:15:21;33.30;73.40
569;DHT22;269;48.884;9.192;2022-07-29T10:17:49;32.80;72.60
569;DHT22;269;48.884;9.192;2022-07-29T10:20:17;32.20;74.10
569;DHT22;269;48.884;9.192;2022-07-29T10:22:45;31.80;74.80
569;DHT22;269;48.884;9.192;2022-07-29T10:25:14;31.20;76.30
569;DHT22;269;48.884;9.192;2022-07-29T10:27:42;30.70;78.20
569;DHT22;269;48.884;9.192;2022-07-29T10:30:13;30.50;79.70
569;DHT22;269;48.884;9.192;2022-07-29T10:32:51;30.30;80.50
569;DHT22;269;48.884;9.192;2022-07-29T10:35:31;30.10;80.70
569;DHT22;269;48.884;9.192;2022-07-29T10:38:16;29.80;81.50
569;DHT22;269;48.884;9.192;2022-07-29T10:40:54;29.60;81.90
569;DHT22;269;48.884;9.192;2022-07-29T10:43:43;29.40;82.80
569;DHT22;269;48.884;9.192;2022-07-29T10:46:11;29.20;83.70
569;DHT22;269;48.884;9.192;2022-07-29T10:49:08;29.00;84.40
569;DHT22;269;48.884;9.192;2022-07-29T10:51:56;28.80;84.70
569;DHT22;269;48.884;9.192;2022-07-29T10:54:46;28.40;86.40
569;DHT22;269;48.884;9.192;2022-07-29T10:57:26;28.10;86.10
569;DHT22;269;48.884;9.192;2022-07-29T11:00:26;27.80;86.90
569;DHT22;269;48.884;9.192;2022-07-29T11:02:54;27.60;87.00
569;DHT22;269;48.884;9.192;2022-07-29T11:05:25;27.50;87.40
569;DHT22;269;48.884;9.192;2022-07-29T11:08:21;27.40;88.90
569;DHT22;269;48.884;9.192;2022-07-29T11:10:49;27.20;87.60
569;DHT22;269;48.884;9.192;2022-07-29T11:13:50;27.00;87.80
569;DHT22;269;48.884;9.192;2022-07-29T11:16:21;26.90;88.30
569;DHT22;269;48.884;9.192;2022-07-29T11:19:20;26.80;89.50
569;DHT22;269;48.884;9.192;2022-07-29T11:21:49;26.70;90.10
569;DHT22;269;48.884;9.192;2022-07-29T11:24:20;26.70;90.10
569;DHT22;269;48.884;9.192;2022-07-29T11:27:09;26.70;89.40
569;DHT22;269;48.884;9.192;2022-07-29T11:29:40;26.70;89.80
569;DHT22;269;48.884;9.192;2022-07-29T11:32:14;26.60;89.60
569;DHT22;269;48.884;9.192;2022-07-29T11:34:42;26.60;90.70
569;DHT22;269;48.884;9.192;2022-07-29T11:37:31;26.50;91.00
569;DHT22;269;48.884;9.192;2022-07-29T11:40:18;26.60;91.80
569;DHT22;269;48.884;9.192;2022-07-29T11:42:48;26.70;92.10
569;DHT22;269;48.884;9.192;2022-07-29T11:45:21;26.80;92.40
569;DHT22;269;48.884;9.192;2022-07-29T11:47:51;26.90;92.40
569;DHT22;269;48.884;9.192;2022-07-29T11:50:31;27.00;92.90
569;DHT22;269;48.884;9.192;2022-07-29T11:53:01;27.10;94.30
569;DHT22;269;48.884;9.192;2022-07-29T11:55:29;27.00;95.00
569;DHT22;269;48.884;9.192;2022-07-29T11:58:01;26.80;95.60
569;DHT22;269;48.884;9.192;2022-07-29T12:00:31;26.60;96.60
569;DHT22;269;48.884;9.192;2022-07-29T12:03:00;26.30;99.30
569;DHT22;269;48.884;9.192;2022-07-29T12:05:36;26.10;99.90
569;DHT22;269;48.884;9.192;2022-07-29T12:08:10;25.90;99.90
569;DHT22;269;48.884;9.192;2022-07-29T12:10:37;25.70;99.90
569;DHT22;269;48.884;9.192;2022-07-29T12:13:05;25.50;99.90
569;DHT22;269;48.884;9.192;2022-07-29T12:15:33;25.20;99.90
569;DHT22;269;48.884;9.192;2022-07-29T12:18:13;25.10;99.90
569;DHT22;269;48.884;9.192;2022-07-29T12:20:40;25.10;99.90
569;DHT22;269;48.884;9.192;2022-07-29T12:23:10;25.10;99.90
569;DHT22;269;48.884;9.192;2022-07-29T12:25:40;25.00;99.90
569;DHT22;269;48.884;9.192;2022-07-29T12:28:09;24.90;99.90
569;DHT22;269;48.884;9.192;2022-07-29T12:30:41;24.90;99.90
569;DHT22;269;48.884;9.192;2022-07-29T12:33:20;24.90;99.90
569;DHT22;269;48.884;9.192;2022-07-29T12:35:50;25.00;99.90
569;DHT22;269;48.884;9.192;2022-07-29T12:38:20;25.00;99.90
569;DHT22;269;48.884;9.192;2022-07-29T12:40:48;24.80;99.90
569;DHT22;269;48.884;9.192;2022-07-29T12:43:17;24.70;99.90
569;DHT22;269;48.884;9.192;2022-07-29T12:45:47;24.50;99.90
569;DHT22;269;48.884;9.192;2022-07-29T12:48:14;24.40;99.90
569;DHT22;269;48.884;9.192;2022-07-29T12:50:55;24.40;99.90
569;DHT22;269;48.884;9.192;2022-07-29T12:53:24;24.50;99.90
569;DHT22;269;48.884;9.192;2022-07-29T12:55:55;24.30;99.90
569;DHT22;269;48.884;9.192;2022-07-29T12:58:31;24.30;99.90
569;DHT22;269;48.884;9.192;2022-07-29T13:01:06;24.30;99.90
569;DHT22;269;48.884;9.192;2022-07-29T13:03:44;24.20;99.90
569;DHT22;269;48.884;9.192;2022-07-29T13:06:32;24.30;99.90
569;DHT22;269;48.884;9.192;2022-07-29T13:09:06;24.20;99.90
569;DHT22;269;48.884;9.192;2022-07-29T13:11:35;24.30;99.90
569;DHT22;269;48.884;9.192;2022-07-29T13:14:03;24.20;99.90
569;DHT22;269;48.884;9.192;2022-07-29T13:16:30;24.20;99.90
569;DHT22;269;48.884;9.192;2022-07-29T13:19:09;24.20;99.90
569;DHT22;269;48.884;9.192;2022-07-29T13:21:37;24.10;99.90
569;DHT22;269;48.884;9.192;2022-07-29T13:24:06;24.10;99.90
569;DHT22;269;48.884;9.192;2022-07-29T13:26:34;24.10;99.90
569;DHT22;269;48.884;9.192;2022-07-29T13:29:02;24.10;99.90
569;DHT22;269;48.884;9.192;2022-07-29T13:31:30;24.10;99.90
569;DHT22;269;48.884;9.192;2022-07-29T13:33:57;24.10;99.90
569;DHT22;269;48.884;9.192;2022-07-29T13:36:24;24.10;99.90
569;DHT22;269;48.884;9.192;2022-07-29T13:38:52;24.00;99.90
569;DHT22;269;48.884;9.192;2022-07-29T13:41:20;23.90;99.90
569;DHT22;269;48.884;9.192;2022-07-29T13:43:47;24.00;99.90
569;DHT22;269;48.884;9.192;2022-07-29T13:46:15;24.10;99.90
569;DHT22;269;48.884;9.192;2022-07-29T13:48:42;24.20;99.90
569;DHT22;269;48.884;9.192;2022-07-29T13:51:09;24.20;99.90
569;DHT22;269;48.884;9.192;2022-07-29T13:53:36;24.30;99.90
569;DHT22;269;48.884;9.192;2022-07-29T13:56:03;24.40;99.90
569;DHT22;269;48.884;9.192;2022-07-29T13:58:33;24.80;99.90
569;DHT22;269;48.884;9.192;2022-07-29T14:01:00;25.10;99.90
569;DHT22;269;48.884;9.192;2022-07-29T14:03:27;25.20;99.90
569;DHT22;269;48.884;9.192;2022-07-29T14:05:55;25.10;99.90
569;DHT22;269;48.884;9.192;2022-07-29T14:08:24;25.20;99.90
569;DHT22;269;48.884;9.192;2022-07-29T14:10:51;25.10;99.90
569;DHT22;269;48.884;9.192;2022-07-29T14:13:18;25.20;99.90
569;DHT22;269;48.884;9.192;2022-07-29T14:15:46;25.10;99.90
569;DHT22;269;48.884;9.192;2022-07-29T14:18:13;25.10;99.90
569;DHT22;269;48.884;9.192;2022-07-29T14:20:40;25.20;99.90
569;DHT22;269;48.884;9.192;2022-07-29T14:23:07;25.40;99.90
569;DHT22;269;48.884;9.192;2022-07-29T14:25:35;25.30;99.90
569;DHT22;269;48.884;9.192;2022-07-29T14:28:02;25.40;99.90
569;DHT22;269;48.884;9.192;2022-07-29T14:30:29;25.40;99.90
569;DHT22;269;48.884;9.192;2022-07-29T14:32:57;25.40;99.90
569;DHT22;269;48.884;9.192;2022-07-29T14:35:24;25.60;99.90
569;DHT22;269;48.884;9.192;2022-07-29T14:37:51;25.60;99.90
569;DHT22;269;48.884;9.192;2022-07-29T14:40:18;25.50;99.90
569;DHT22;269;48.884;9.192;2022-07-29T14:42:45;25.50;99.90
569;DHT22;269;48.884;9.192;2022-07-29T14:45:13;25.60;99.90
569;DHT22;269;48.884;9.192;2022-07-29T14:47:40;25.60;99.90
569;DHT22;269;48.884;9.192;2022-07-29T14:50:09;25.60;99.90
569;DHT22;269;48.884;9.192;2022-07-29T14:52:38;25.60;99.90
569;DHT22;269;48.884;9.192;2022-07-29T14:55:05;25.50;99.90
569;DHT22;269;48.884;9.192;2022-07-29T14:57:33;25.60;99.90
569;DHT22;269;48.884;9.192;2022-07-29T15:00:00;25.70;99.90
569;DHT22;269;48.884;9.192;2022-07-29T15:02:28;25.70;99.90
569;DHT22;269;48.884;9.192;2022-07-29T15:04:56;25.90;99.90
569;DHT22;269;48.884;9.192;2022-07-29T15:07:25;26.10;99.90
569;DHT22;269;48.884;9.192;2022-07-29T15:09:52;26.00;99.90
569;DHT22;269;48.884;9.192;2022-07-29T15:12:19;25.90;99.90
569;DHT22;269;48.884;9.192;2022-07-29T15:14:46;26.00;99.90
569;DHT22;269;48.884;9.192;2022-07-29T15:17:13;26.00;99.90
569;DHT22;269;48.884;9.192;2022-07-29T15:19:40;26.00;99.90
569;DHT22;269;48.884;9.192;2022-07-29T15:22:07;26.10;99.90
569;DHT22;269;48.884;9.192;2022-07-29T15:24:36;26.00;99.90
569;DHT22;269;48.884;9.192;2022-07-29T15:27:03;26.00;99.90
569;DHT22;269;48.884;9.192;2022-07-29T15:29:30;25.90;96.60
569;DHT22;269;48.884;9.192;2022-07-29T15:32:01;26.00;95.30
569;DHT22;269;48.884;9.192;2022-07-29T15:34:28;26.10;92.70
569;DHT22;269;48.884;9.192;2022-07-29T15:36:55;26.20;93.00
569;DHT22;269;48.884;9.192;2022-07-29T15:39:22;26.40;90.70
569;DHT22;269;48.884;9.192;2022-07-29T15:41:51;26.50;89.50
569;DHT22;269;48.884;9.192;2022-07-29T15:44:18;26.60;88.40
569;DHT22;269;48.884;9.192;2022-07-29T15:46:46;26.60;87.70
569;DHT22;269;48.884;9.192;2022-07-29T15:49:33;26.70;86.50
569;DHT22;269;48.884;9.192;2022-07-29T15:52:01;26.80;84.70
569;DHT22;269;48.884;9.192;2022-07-29T15:54:29;27.00;84.00
569;DHT22;269;48.884;9.192;2022-07-29T15:56:58;26.90;83.40
569;DHT22;269;48.884;9.192;2022-07-29T15:59:25;26.90;81.80
569;DHT22;269;48.884;9.192;2022-07-29T16:01:52;26.90;80.90
569;DHT22;269;48.884;9.192;2022-07-29T16:04:19;27.00;82.30
569;DHT22;269;48.884;9.192;2022-07-29T16:06:47;26.90;80.60
569;DHT22;269;48.884;9.192;2022-07-29T16:09:15;26.90;80.20
569;DHT22;269;48.884;9.192;2022-07-29T16:11:43;27.00;80.70
569;DHT22;269;48.884;9.192;2022-07-29T16:14:12;27.00;80.30
569;DHT22;269;48.884;9.192;2022-07-29T16:16:39;27.00;80.20
569;DHT22;269;48.884;9.192;2022-07-29T16:19:07;27.00;79.30
569;DHT22;269;48.884;9.192;2022-07-29T16:21:35;27.10;79.60
569;DHT22;269;48.884;9.192;2022-07-29T16:24:03;27.10;79.50
569;DHT22;269;48.884;9.192;2022-07-29T16:26:30;27.10;79.90
569;DHT22;269;48.884;9.192;2022-07-29T16:28:57;27.10;79.50
569;DHT22;269;48.884;9.192;2022-07-29T16:31:26;27.20;80.50
569;DHT22;269;48.884;9.192;2022-07-29T16:33:54;27.20;80.60
569;DHT22;269;48.884;9.192;2022-07-29T16:36:21;27.20;79.80
569;DHT22;269;48.884;9.192;2022-07-29T16:38:49;27.10;78.50
569;DHT22;269;48.884;9.192;2022-07-29T16:41:16;27.00;79.50
569;DHT22;269;48.884;9.192;2022-07-29T16:43:43;27.00;78.70
569;DHT22;269;48.884;9.192;2022-07-29T16:46:10;27.00;77.90
569;DHT22;269;48.884;9.192;2022-07-29T16:48:39;26.90;77.50
569;DHT22;269;48.884;9.192;2022-07-29T16:51:06;26.90;77.70
569;DHT22;269;48.884;9.192;2022-07-29T16:53:34;26.90;77.50